Time;durP1;ratioP1;P1;durP2;ratioP2;P2;SDS_P1;SDS_P2;PMS_P1;PMS_P2;Temp;Humidity;BMP_temperature;BMP_pressure;BME280_temperature;BME280_humidity;BME280_pressure;Samples;Min_cycle;Max_cycle;Signal;HPM_P1;HPM_P2
2021/06/16 00:01:13;;;;;;;2.93;1.00;;;;;;;13.12;55.47;101186.38;5109648;27;20205;-73
2021/06/16 00:03:41;;;;;;;4.10;1.10;;;;;;;13.02;56.05;101181.66;5108453;28;20198;-73
2021/06/16 00:06:09;;;;;;;2.87;0.90;;;;;;;12.93;56.36;101184.13;5108128;28;20214;-73
2021/06/16 00:08:39;;;;;;;5.50;1.10;;;;;;;12.85;57.30;101184.66;5108540;27;20255;-73
2021/06/16 00:11:08;;;;;;;2.53;0.87;;;;;;;12.74;57.04;101181.84;5104973;28;20197;-73
2021/06/16 00:13:36;;;;;;;5.30;1.00;;;;;;;12.41;57.84;101147.34;5108544;28;20213;-73
2021/06/16 00:16:04;;;;;;;1.33;0.70;;;;;;;12.63;57.72;101188.00;5108138;28;20221;-72
2021/06/16 00:18:33;;;;;;;5.97;1.27;;;;;;;12.59;57.37;101194.59;5107511;27;20556;-72
2021/06/16 00:21:01;;;;;;;3.37;1.00;;;;;;;12.56;57.35;101205.56;5105636;28;20412;-73
2021/06/16 00:23:29;;;;;;;2.57;0.73;;;;;;;12.54;56.73;101206.63;5108857;27;20278;-73
2021/06/16 00:25:59;;;;;;;3.90;1.00;;;;;;;12.51;57.11;101196.06;5107672;28;20199;-73
2021/06/16 00:28:27;;;;;;;2.40;0.93;;;;;;;12.44;57.08;101198.31;5105721;28;20278;-73
2021/06/16 00:30:55;;;;;;;6.00;1.10;;;;;;;12.33;57.69;101187.41;5108319;28;20728;-74
2021/06/16 00:33:23;;;;;;;0.87;0.87;;;;;;;12.28;58.17;101197.66;5107426;28;20677;-73
2021/06/16 00:35:51;;;;;;;0.93;0.90;;;;;;;12.24;58.35;101198.78;5105840;28;20245;-73
2021/06/16 00:38:19;;;;;;;5.67;1.00;;;;;;;12.23;58.22;101200.63;5106746;27;20207;-73
2021/06/16 00:40:47;;;;;;;2.90;1.00;;;;;;;12.18;58.17;101201.91;5109131;27;20197;-74
2021/06/16 00:43:17;;;;;;;1.77;0.97;;;;;;;11.68;58.08;101130.75;5106394;28;20215;-74
2021/06/16 00:45:45;;;;;;;7.60;1.00;;;;;;;12.12;58.26;101220.19;5111582;27;20193;-74
2021/06/16 00:48:13;;;;;;;2.30;1.00;;;;;;;12.07;58.46;101208.88;5108444;28;20204;-74
2021/06/16 00:50:42;;;;;;;3.43;1.00;;;;;;;12.02;58.34;101216.41;5109682;27;20220;-73
2021/06/16 00:53:11;;;;;;;2.30;1.00;;;;;;;11.98;58.30;101209.50;5108312;28;20196;-74
2021/06/16 00:55:39;;;;;;;1.23;1.10;;;;;;;11.95;58.47;101209.69;5109981;27;20203;-73
2021/06/16 00:58:08;;;;;;;3.77;0.90;;;;;;;11.91;57.73;101216.22;5103568;28;20203;-74
2021/06/16 01:00:42;;;;;;;2.33;0.90;;;;;;;11.85;58.30;101219.31;5108368;28;20243;-74
2021/06/16 01:03:14;;;;;;;2.27;1.00;;;;;;;11.81;58.68;101212.41;5109418;28;20623;-74
2021/06/16 01:05:45;;;;;;;4.43;1.20;;;;;;;11.78;59.13;101218.00;5108958;27;20286;-73
2021/06/16 01:08:18;;;;;;;2.63;1.00;;;;;;;11.79;58.66;101222.41;5110445;27;20201;-73
2021/06/16 01:10:48;;;;;;;4.83;0.80;;;;;;;11.80;58.10;101216.06;5112737;28;20215;-73
2021/06/16 01:13:24;;;;;;;7.17;0.77;;;;;;;11.65;59.09;101200.91;5115220;28;20267;-73
2021/06/16 01:16:02;;;;;;;2.93;1.03;;;;;;;11.63;60.49;101229.72;5101208;28;20238;-73
2021/06/16 01:18:36;;;;;;;3.17;1.30;;;;;;;11.60;59.89;101232.59;5109422;28;20202;-73
2021/06/16 01:21:06;;;;;;;3.13;1.10;;;;;;;11.57;60.51;101232.78;5112525;28;20252;-73
2021/06/16 01:24:02;;;;;;;3.57;1.30;;;;;;;11.54;60.50;101224.94;5116721;28;20197;-73
2021/06/16 01:26:34;;;;;;;1.67;1.10;;;;;;;11.58;59.09;101218.38;5115834;27;21087;-73
2021/06/16 01:29:09;;;;;;;3.77;0.90;;;;;;;11.56;59.38;101228.38;5117731;27;20200;-73
2021/06/16 01:31:39;;;;;;;3.70;1.07;;;;;;;11.27;61.49;101198.81;5118483;27;20567;-73
2021/06/16 01:34:09;;;;;;;4.43;1.27;;;;;;;11.41;61.30;101236.47;5116264;27;20265;-73
2021/06/16 01:36:40;;;;;;;2.70;1.00;;;;;;;11.43;60.41;101229.19;5116628;27;20643;-73
2021/06/16 01:39:10;;;;;;;2.23;0.83;;;;;;;11.43;60.37;101234.56;5118810;27;20210;-73
2021/06/16 01:41:43;;;;;;;1.60;0.77;;;;;;;11.47;60.52;101235.22;5121530;27;20594;-73
2021/06/16 01:44:13;;;;;;;1.30;0.80;;;;;;;11.50;59.96;101237.72;5115996;28;20208;-73
2021/06/16 01:46:44;;;;;;;4.33;1.00;;;;;;;11.52;60.17;101244.72;5115362;27;20203;-73
2021/06/16 01:49:13;;;;;;;4.03;1.00;;;;;;;11.42;60.16;101216.69;5116713;27;20733;-73
2021/06/16 01:51:42;;;;;;;0.70;0.70;;;;;;;11.48;60.23;101237.81;5120683;27;20199;-73
2021/06/16 01:54:12;;;;;;;2.83;1.00;;;;;;;11.41;60.38;101227.56;5120727;27;20320;-73
2021/06/16 01:56:42;;;;;;;2.20;0.90;;;;;;;11.49;59.44;101230.59;5115221;28;20205;-73
2021/06/16 01:59:12;;;;;;;1.87;1.00;;;;;;;11.45;60.07;101221.00;5104679;27;20208;-73
2021/06/16 02:01:40;;;;;;;2.97;1.00;;;;;;;11.40;59.69;101207.84;5115159;27;20190;-73
2021/06/16 02:04:08;;;;;;;0.97;0.90;;;;;;;11.43;59.97;101220.25;5116221;27;20195;-72
2021/06/16 02:06:40;;;;;;;4.37;0.90;;;;;;;11.42;60.00;101226.59;5121332;27;20211;-73
2021/06/16 02:09:10;;;;;;;3.30;1.10;;;;;;;11.32;59.96;101220.91;5115881;27;20627;-73
2021/06/16 02:11:41;;;;;;;3.23;1.10;;;;;;;11.41;59.29;101233.78;5127610;27;20191;-73
2021/06/16 02:14:12;;;;;;;5.07;1.00;;;;;;;11.33;59.61;101233.41;5111683;27;20199;-73
2021/06/16 02:16:43;;;;;;;3.27;0.93;;;;;;;11.39;60.36;101237.53;5108806;28;20207;-73
2021/06/16 02:19:15;;;;;;;3.20;1.13;;;;;;;11.23;60.24;101205.38;5114491;27;20585;-73
2021/06/16 02:21:44;;;;;;;2.00;0.93;;;;;;;10.99;60.00;101167.44;5126967;27;20199;-73
2021/06/16 02:24:12;;;;;;;1.60;1.07;;;;;;;11.42;59.33;101232.81;5113725;27;20196;-73
2021/06/16 02:26:42;;;;;;;2.43;0.90;;;;;;;11.52;60.18;101225.03;5115964;28;20195;-73
2021/06/16 02:29:11;;;;;;;1.90;0.97;;;;;;;11.54;60.48;101214.16;5115504;27;20247;-73
2021/06/16 02:31:41;;;;;;;1.80;0.90;;;;;;;11.72;61.04;101234.53;5127235;27;20229;-73
2021/06/16 02:34:09;;;;;;;4.00;1.03;;;;;;;12.03;63.27;101228.88;5112723;27;20197;-73
2021/06/16 02:36:44;;;;;;;1.83;1.00;;;;;;;12.78;63.48;101236.41;5114312;27;20293;-73
2021/06/16 02:39:14;;;;;;;1.37;0.80;;;;;;;13.57;61.82;101233.50;5104604;28;20199;-73
2021/06/16 02:41:46;;;;;;;5.70;1.20;;;;;;;14.33;60.89;101216.16;5111976;28;20557;-73
2021/06/16 02:44:15;;;;;;;2.40;1.20;;;;;;;15.20;59.79;101237.31;5111793;28;20200;-73
2021/06/16 02:46:48;;;;;;;2.80;0.90;;;;;;;15.96;58.09;101230.31;5112495;27;20207;-73
2021/06/16 02:49:18;;;;;;;1.53;1.00;;;;;;;16.75;56.50;101226.31;5110820;28;20200;-73
2021/06/16 02:51:47;;;;;;;2.13;1.10;;;;;;;17.53;54.24;101236.63;5112480;27;20207;-73
2021/06/16 02:54:19;;;;;;;2.13;1.00;;;;;;;18.34;50.85;101242.00;5112008;27;20200;-73
2021/06/16 02:56:50;;;;;;;2.13;0.90;;;;;;;19.03;49.21;101239.16;5111139;27;20192;-73
2021/06/16 02:59:21;;;;;;;1.57;0.90;;;;;;;19.49;48.14;101241.84;5106759;28;20200;-73
2021/06/16 03:01:51;;;;;;;3.23;1.20;;;;;;;19.72;46.77;101255.13;5105457;27;20200;-73
2021/06/16 03:04:20;;;;;;;3.27;0.93;;;;;;;19.72;46.92;101247.81;5108148;28;20200;-73
2021/06/16 03:06:49;;;;;;;4.50;0.93;;;;;;;19.44;46.95;101249.63;5110639;28;20260;-73
2021/06/16 03:09:18;;;;;;;2.90;1.00;;;;;;;18.91;47.73;101255.63;5110400;28;20215;-73
2021/06/16 03:11:50;;;;;;;2.97;1.20;;;;;;;18.84;47.88;101268.09;5111578;27;22795;-73
2021/06/16 03:14:23;;;;;;;1.43;1.07;;;;;;;18.63;48.69;101239.31;5107161;28;20670;-73
2021/06/16 03:16:52;;;;;;;3.77;0.90;;;;;;;18.79;48.65;101269.53;5101891;28;20200;-73
2021/06/16 03:19:22;;;;;;;3.60;1.00;;;;;;;18.82;48.88;101245.59;5098535;27;20198;-73
2021/06/16 03:21:50;;;;;;;2.73;1.10;;;;;;;18.47;49.71;101262.50;5120221;27;20200;-73
2021/06/16 03:24:20;;;;;;;1.93;1.00;;;;;;;18.24;49.56;101280.06;5105614;28;20207;-73
2021/06/16 03:26:51;;;;;;;1.40;1.10;;;;;;;17.62;51.57;101275.69;5104499;28;20200;-73
2021/06/16 03:29:30;;;;;;;8.00;1.33;;;;;;;17.15;52.10;101236.44;5107594;28;20211;-73
2021/06/16 03:31:59;;;;;;;5.20;1.10;;;;;;;17.08;52.38;101253.25;5106471;28;20277;-73
2021/06/16 03:34:28;;;;;;;2.63;1.13;;;;;;;16.75;54.33;101277.84;5110711;28;20199;-72
2021/06/16 03:37:00;;;;;;;1.37;0.90;;;;;;;16.55;54.84;101271.38;5110497;28;20525;-71
2021/06/16 03:39:29;;;;;;;3.53;1.00;;;;;;;16.31;55.44;101266.16;5110331;28;20204;-72
2021/06/16 03:41:59;;;;;;;1.87;0.90;;;;;;;16.27;55.87;101259.28;5107220;28;20202;-72
2021/06/16 03:44:28;;;;;;;2.50;1.00;;;;;;;15.82;56.82;101244.97;5103366;28;20204;-72
2021/06/16 03:46:59;;;;;;;2.00;1.20;;;;;;;15.84;58.27;101270.06;5106109;28;20188;-72
2021/06/16 03:49:29;;;;;;;3.13;1.10;;;;;;;15.68;58.17;101270.47;5106459;28;20291;-73
2021/06/16 03:51:59;;;;;;;3.60;1.40;;;;;;;15.40;60.37;101260.97;5107223;28;20216;-73
2021/06/16 03:54:28;;;;;;;3.53;1.30;;;;;;;15.75;59.71;101263.56;5104669;28;20650;-72
2021/06/16 03:56:57;;;;;;;2.67;1.00;;;;;;;15.71;60.06;101272.06;5108704;28;20249;-72
2021/06/16 03:59:26;;;;;;;5.00;1.03;;;;;;;15.90;57.63;101277.69;5109327;28;20223;-74
2021/06/16 04:01:55;;;;;;;2.27;1.20;;;;;;;15.91;57.96;101275.84;5110718;27;20557;-73
2021/06/16 04:04:24;;;;;;;2.77;1.37;;;;;;;16.05;57.18;101268.31;5110200;27;20204;-73
2021/06/16 04:06:56;;;;;;;2.53;1.40;;;;;;;16.15;56.00;101273.84;5107672;28;20212;-73
2021/06/16 04:09:24;;;;;;;3.37;1.33;;;;;;;16.12;55.45;101274.97;5109864;28;20227;-74
2021/06/16 04:11:52;;;;;;;6.57;1.60;;;;;;;16.14;55.28;101262.13;5118059;27;20908;-73
2021/06/16 04:14:22;;;;;;;3.13;1.30;;;;;;;16.34;54.52;101284.88;5110645;27;20219;-72
2021/06/16 04:16:55;;;;;;;6.50;1.73;;;;;;;16.30;54.67;101279.84;5110409;27;20196;-72
2021/06/16 04:19:24;;;;;;;4.60;1.60;;;;;;;16.23;55.29;101281.38;5107150;27;20200;-72
2021/06/16 04:21:52;;;;;;;4.77;1.63;;;;;;;16.11;55.53;101280.50;5106845;28;20253;-72
2021/06/16 04:24:20;;;;;;;5.30;1.53;;;;;;;16.14;55.44;101280.25;5106683;28;20706;-72
2021/06/16 04:26:48;;;;;;;6.00;1.90;;;;;;;16.18;54.95;101284.41;5105820;28;20203;-71
2021/06/16 04:29:16;;;;;;;4.43;1.60;;;;;;;16.06;55.45;101290.88;5108591;28;20662;-71
2021/06/16 04:31:44;;;;;;;5.27;1.40;;;;;;;16.15;54.72;101303.66;5105046;28;20212;-71
2021/06/16 04:34:14;;;;;;;3.83;1.40;;;;;;;16.18;54.25;101294.41;5105701;28;20192;-72
2021/06/16 04:36:42;;;;;;;7.03;1.40;;;;;;;16.00;55.48;101269.69;5106837;27;20220;-72
2021/06/16 04:39:10;;;;;;;5.63;1.40;;;;;;;16.10;54.78;101278.78;5101984;27;20258;-71
2021/06/16 04:41:38;;;;;;;4.50;1.30;;;;;;;16.05;55.27;101278.31;5106340;28;20292;-71
2021/06/16 04:44:07;;;;;;;4.43;1.37;;;;;;;16.05;54.98;101273.75;5106011;28;20199;-72
2021/06/16 04:46:35;;;;;;;3.27;1.40;;;;;;;16.21;53.91;101284.16;5105291;28;20533;-72
2021/06/16 04:49:03;;;;;;;5.30;1.30;;;;;;;16.17;54.19;101284.56;5109884;28;20287;-72
2021/06/16 04:51:32;;;;;;;4.63;1.37;;;;;;;16.17;54.00;101287.25;5108406;27;20211;-74
2021/06/16 04:54:00;;;;;;;4.37;1.30;;;;;;;16.13;54.82;101286.66;5109490;28;20318;-76
2021/06/16 04:56:29;;;;;;;3.60;1.00;;;;;;;16.13;55.91;101287.53;5109546;28;20660;-76
2021/06/16 04:58:57;;;;;;;4.00;1.10;;;;;;;16.21;55.91;101283.31;5108573;28;20199;-76
2021/06/16 05:01:25;;;;;;;3.87;1.30;;;;;;;16.49;55.89;101290.00;5108207;28;20188;-76
2021/06/16 05:03:53;;;;;;;3.10;1.17;;;;;;;16.43;56.43;101285.97;5108190;28;20200;-75
2021/06/16 05:06:21;;;;;;;3.53;1.20;;;;;;;16.86;55.83;101290.53;5106381;28;20207;-76
2021/06/16 05:08:50;;;;;;;2.30;1.30;;;;;;;17.20;53.67;101289.34;5108692;28;20202;-75
2021/06/16 05:11:18;;;;;;;3.07;1.03;;;;;;;17.45;53.41;101293.50;5108391;28;20575;-76
2021/06/16 05:13:46;;;;;;;9.63;1.33;;;;;;;17.58;53.81;101293.25;5108438;28;20195;-75
2021/06/16 05:16:15;;;;;;;5.17;1.40;;;;;;;17.72;53.48;101286.63;5108259;28;20243;-76
2021/06/16 05:18:44;;;;;;;1.67;1.17;;;;;;;18.20;51.46;101284.91;5108515;28;20284;-76
2021/06/16 05:21:13;;;;;;;2.63;1.30;;;;;;;18.49;50.68;101284.09;5107802;28;20829;-76
2021/06/16 05:23:42;;;;;;;2.43;1.30;;;;;;;18.65;51.11;101292.59;5105942;28;20540;-76
2021/06/16 05:26:11;;;;;;;4.20;1.20;;;;;;;18.74;50.72;101269.97;5087470;28;20612;-75
2021/06/16 05:28:39;;;;;;;3.63;1.20;;;;;;;19.11;50.83;101291.84;5107027;28;20195;-75
2021/06/16 05:31:09;;;;;;;3.97;1.23;;;;;;;19.22;50.64;101299.84;5105734;28;20207;-76
2021/06/16 05:33:37;;;;;;;2.87;1.13;;;;;;;19.47;49.75;101297.50;5100765;28;20555;-75
2021/06/16 05:36:07;;;;;;;6.33;1.40;;;;;;;19.30;50.96;101279.22;5106823;28;20200;-76
2021/06/16 05:38:36;;;;;;;5.23;1.17;;;;;;;19.67;49.64;101292.91;5106844;28;20658;-75
2021/06/16 05:41:04;;;;;;;5.27;1.30;;;;;;;20.11;47.98;101297.53;5105798;28;20196;-75
2021/06/16 05:43:34;;;;;;;3.87;1.30;;;;;;;19.90;48.78;101294.22;5108336;28;20191;-76
2021/06/16 05:46:02;;;;;;;5.50;1.10;;;;;;;19.92;49.83;101286.75;5107457;28;20321;-76
2021/06/16 05:48:31;;;;;;;4.73;1.43;;;;;;;19.97;50.18;101284.44;5105726;28;20224;-75
2021/06/16 05:50:59;;;;;;;3.73;1.60;;;;;;;20.15;48.72;101259.91;5107354;28;20204;-75
2021/06/16 05:53:30;;;;;;;5.80;1.70;;;;;;;20.19;49.17;101288.59;5105891;28;20211;-76
2021/06/16 05:55:59;;;;;;;4.03;1.47;;;;;;;19.96;50.53;101299.09;5108139;28;20192;-76
2021/06/16 05:58:27;;;;;;;7.10;1.50;;;;;;;20.19;49.81;101298.66;5106911;28;21414;-75
2021/06/16 06:00:56;;;;;;;1.53;1.20;;;;;;;20.60;48.64;101319.09;5107860;28;20210;-75
2021/06/16 06:03:25;;;;;;;8.53;1.50;;;;;;;20.82;47.75;101312.34;5107541;28;20558;-75
2021/06/16 06:05:53;;;;;;;3.90;1.30;;;;;;;20.93;48.61;101307.47;5103834;28;20239;-76
2021/06/16 06:08:21;;;;;;;2.40;1.20;;;;;;;21.34;46.35;101283.22;5105013;28;20207;-76
2021/06/16 06:10:49;;;;;;;2.83;1.30;;;;;;;21.87;45.54;101307.66;5109715;28;20559;-76
2021/06/16 06:13:17;;;;;;;2.50;1.20;;;;;;;22.24;44.55;101306.47;5112142;28;20642;-76
2021/06/16 06:15:45;;;;;;;3.27;1.10;;;;;;;22.37;44.99;101295.91;5108025;28;20235;-76
2021/06/16 06:18:15;;;;;;;3.20;1.70;;;;;;;22.39;44.36;101258.28;5111859;28;20294;-76
2021/06/16 06:20:43;;;;;;;2.53;1.23;;;;;;;22.66;44.20;101294.59;5112008;27;20204;-76
2021/06/16 06:23:12;;;;;;;3.23;1.20;;;;;;;22.78;43.97;101298.72;5112790;27;20192;-76
2021/06/16 06:25:40;;;;;;;3.23;1.20;;;;;;;23.01;43.09;101266.91;5105749;28;20201;-76
2021/06/16 06:28:11;;;;;;;2.70;1.27;;;;;;;23.60;41.79;101289.47;5102000;28;20675;-76
2021/06/16 06:30:39;;;;;;;3.10;1.27;;;;;;;23.41;42.43;101287.91;5112182;28;20203;-77
2021/06/16 06:33:07;;;;;;;7.03;1.70;;;;;;;23.24;42.51;101272.50;5108894;28;20216;-74
2021/06/16 06:35:37;;;;;;;3.63;1.60;;;;;;;23.29;42.55;101280.25;5111662;28;20275;-76
2021/06/16 06:38:05;;;;;;;6.73;1.60;;;;;;;23.51;42.16;101284.97;5107524;28;20204;-75
2021/06/16 06:40:33;;;;;;;5.60;1.67;;;;;;;23.72;41.86;101279.81;5111876;28;20208;-75
2021/06/16 06:43:02;;;;;;;2.17;1.27;;;;;;;23.77;41.54;101244.47;5112517;28;20206;-75
2021/06/16 06:45:30;;;;;;;3.27;1.20;;;;;;;24.11;40.75;101303.66;5110467;28;20215;-75
2021/06/16 06:47:58;;;;;;;4.33;1.60;;;;;;;24.11;41.47;101300.94;5112144;28;20203;-75
2021/06/16 06:50:26;;;;;;;5.72;1.30;;;;;;;24.23;41.97;101299.50;5112319;28;20257;-75
2021/06/16 06:52:56;;;;;;;2.60;1.37;;;;;;;23.92;41.43;101304.13;5112034;28;20283;-75
2021/06/16 06:55:24;;;;;;;3.20;1.15;;;;;;;23.57;41.69;101287.03;5096472;28;20208;-75
2021/06/16 06:57:52;;;;;;;4.03;1.87;;;;;;;24.03;41.12;101300.97;5112966;28;20200;-77
2021/06/16 07:00:21;;;;;;;2.67;1.47;;;;;;;24.19;41.62;101300.06;5105498;28;20197;-76
2021/06/16 07:02:49;;;;;;;5.93;1.20;;;;;;;24.59;41.14;101304.50;5101630;28;20211;-76
2021/06/16 07:05:17;;;;;;;2.53;1.17;;;;;;;24.74;40.09;101308.16;5109769;28;20245;-75
2021/06/16 07:07:45;;;;;;;2.35;1.40;;;;;;;24.82;40.05;101297.13;5108822;28;20199;-75
2021/06/16 07:10:15;;;;;;;5.78;1.45;;;;;;;24.58;40.28;101289.91;5109430;28;20196;-76
2021/06/16 07:12:43;;;;;;;4.88;1.25;;;;;;;24.30;40.35;101220.06;5109315;28;20697;-76
2021/06/16 07:15:12;;;;;;;3.92;1.55;;;;;;;24.95;39.91;101275.34;5094973;28;20297;-76
2021/06/16 07:17:40;;;;;;;3.63;1.10;;;;;;;25.03;39.71;101242.31;5097421;28;20567;-76
2021/06/16 07:20:10;;;;;;;2.53;1.23;;;;;;;25.56;39.11;101281.66;5110057;28;20195;-76
2021/06/16 07:22:39;;;;;;;2.95;1.30;;;;;;;25.98;37.93;101272.75;5096343;28;20215;-76
2021/06/16 07:25:07;;;;;;;4.53;1.55;;;;;;;26.33;37.83;101275.75;5110529;28;20489;-77
2021/06/16 07:27:37;;;;;;;3.38;1.30;;;;;;;26.02;38.08;101281.50;5109728;28;20196;-76
2021/06/16 07:30:08;;;;;;;4.85;1.50;;;;;;;26.47;36.85;101279.53;5108087;28;20208;-75
2021/06/16 07:32:37;;;;;;;1.85;1.05;;;;;;;26.33;36.78;101274.88;5109159;28;20222;-75
2021/06/16 07:35:06;;;;;;;7.30;1.60;;;;;;;25.96;37.69;101271.25;5109138;28;20709;-76
2021/06/16 07:37:34;;;;;;;2.20;1.27;;;;;;;26.24;37.36;101285.16;5105181;28;20204;-76
2021/06/16 07:40:08;;;;;;;1.95;1.35;;;;;;;25.89;36.93;101245.53;5101473;28;20671;-77
2021/06/16 07:42:42;;;;;;;7.63;1.45;;;;;;;25.35;38.01;101276.88;5110709;28;20237;-75
2021/06/16 07:45:11;;;;;;;4.28;1.30;;;;;;;25.92;37.33;101280.94;5110864;28;20815;-76
2021/06/16 07:47:39;;;;;;;4.47;1.17;;;;;;;24.84;38.21;101253.81;5110445;28;20284;-75
2021/06/16 07:50:09;;;;;;;6.13;1.05;;;;;;;25.43;37.77;101289.72;5110742;28;20200;-76
2021/06/16 07:52:38;;;;;;;2.08;1.20;;;;;;;25.49;37.66;101282.63;5108303;28;20222;-75
2021/06/16 07:55:07;;;;;;;6.38;1.20;;;;;;;25.94;37.03;101273.34;5123819;27;20204;-75
2021/06/16 07:57:36;;;;;;;7.72;1.27;;;;;;;26.13;36.96;101293.94;5099407;28;20216;-75
2021/06/16 08:00:06;;;;;;;2.58;0.95;;;;;;;25.99;37.77;101290.13;5105600;28;20200;-75
2021/06/16 08:02:42;;;;;;;5.40;1.30;;;;;;;26.27;37.41;101287.53;5109498;28;20630;-75
2021/06/16 08:05:13;;;;;;;4.68;1.02;;;;;;;26.54;36.52;101284.06;5109076;28;20203;-76
2021/06/16 08:07:41;;;;;;;3.03;1.25;;;;;;;26.58;36.13;101295.53;5098875;28;20207;-76
2021/06/16 08:10:11;;;;;;;1.70;1.25;;;;;;;26.76;36.02;101282.19;5104292;28;20667;-75
2021/06/16 08:12:40;;;;;;;2.60;1.20;;;;;;;27.09;36.39;101292.69;5109602;28;20287;-76
2021/06/16 08:15:10;;;;;;;2.97;1.00;;;;;;;27.08;36.04;101279.97;5123780;27;20246;-76
2021/06/16 08:17:39;;;;;;;3.38;1.38;;;;;;;27.18;35.07;101308.03;5089617;28;20192;-75
2021/06/16 08:20:09;;;;;;;2.58;1.30;;;;;;;26.96;35.35;101287.03;5089873;28;20208;-75
2021/06/16 08:22:37;;;;;;;5.97;1.58;;;;;;;27.32;35.06;101320.91;5102837;28;20282;-76
2021/06/16 08:25:10;;;;;;;3.30;1.50;;;;;;;27.57;35.17;101317.72;5110485;28;20210;-76
2021/06/16 08:27:39;;;;;;;5.78;1.40;;;;;;;27.45;35.31;101315.50;5110002;28;20200;-76
2021/06/16 08:30:10;;;;;;;3.35;1.10;;;;;;;27.82;34.65;101316.19;5109666;28;20204;-76
2021/06/16 08:32:39;;;;;;;4.78;1.30;;;;;;;27.54;35.19;101303.25;5109003;28;20199;-76
2021/06/16 08:35:08;;;;;;;3.72;1.10;;;;;;;27.60;35.19;101303.50;5110504;28;20716;-76
2021/06/16 08:37:36;;;;;;;1.95;1.25;;;;;;;27.63;34.89;101311.41;5109158;28;20587;-76
2021/06/16 08:40:06;;;;;;;4.13;1.33;;;;;;;27.32;35.84;101304.38;5110525;28;20196;-76
2021/06/16 08:42:35;;;;;;;1.73;1.05;;;;;;;27.30;34.89;101309.22;5106328;28;20366;-76
2021/06/16 08:45:04;;;;;;;3.42;1.30;;;;;;;27.34;35.33;101293.13;5099013;28;20188;-76
2021/06/16 08:47:34;;;;;;;2.78;1.38;;;;;;;27.49;34.55;101299.38;5109411;28;20217;-76
2021/06/16 08:50:05;;;;;;;1.90;1.27;;;;;;;27.84;34.74;101303.03;5110159;28;20218;-76
2021/06/16 08:52:34;;;;;;;5.00;1.10;;;;;;;27.48;33.87;101305.97;5107072;28;20212;-76
2021/06/16 08:55:05;;;;;;;2.28;0.95;;;;;;;27.93;34.46;101307.34;5109456;28;20620;-75
2021/06/16 08:57:35;;;;;;;2.78;1.00;;;;;;;28.17;33.67;101305.16;5109872;28;20211;-75
2021/06/16 09:00:05;;;;;;;2.15;1.20;;;;;;;28.39;32.60;101265.28;5109389;28;20196;-76
2021/06/16 09:02:35;;;;;;;2.60;1.00;;;;;;;28.60;32.77;101311.28;5109154;28;21004;-75
2021/06/16 09:05:07;;;;;;;1.48;1.05;;;;;;;28.82;32.56;101290.72;5093872;28;20235;-76
2021/06/16 09:07:39;;;;;;;3.55;1.00;;;;;;;28.88;31.88;101312.00;5110118;28;20204;-76
2021/06/16 09:10:10;;;;;;;2.20;1.13;;;;;;;28.71;30.66;101314.28;5109212;28;20203;-76
2021/06/16 09:12:44;;;;;;;1.20;1.02;;;;;;;28.57;31.34;101286.81;5109613;28;20685;-75
2021/06/16 09:15:15;;;;;;;2.40;0.98;;;;;;;28.83;32.41;101299.84;5107734;28;20335;-76
2021/06/16 09:18:00;;;;;;;2.25;1.00;;;;;;;29.15;31.86;101307.38;5113215;27;20199;-75
2021/06/16 09:20:30;;;;;;;0.93;0.80;;;;;;;28.82;30.77;101256.66;5108779;28;20564;-76
2021/06/16 09:23:09;;;;;;;2.03;1.40;;;;;;;28.82;31.87;101290.72;5107178;28;20210;-75
2021/06/16 09:25:38;;;;;;;2.22;0.88;;;;;;;28.91;30.71;101311.59;5108856;28;20207;-75
2021/06/16 09:28:06;;;;;;;1.88;0.90;;;;;;;29.24;31.11;101316.28;5108544;28;20585;-76
2021/06/16 09:30:39;;;;;;;1.13;0.80;;;;;;;29.62;31.04;101308.22;5108377;28;20229;-76
2021/06/16 09:33:11;;;;;;;2.88;0.80;;;;;;;29.51;29.77;101306.09;5109165;28;20192;-76
2021/06/16 09:35:41;;;;;;;2.25;0.80;;;;;;;29.10;30.38;101309.91;5108930;28;20238;-76
2021/06/16 09:38:14;;;;;;;0.90;0.73;;;;;;;29.00;29.52;101312.22;5109355;28;20196;-76
2021/06/16 09:40:44;;;;;;;1.52;0.85;;;;;;;28.85;29.98;101306.91;5109017;28;20595;-77
2021/06/16 09:43:14;;;;;;;0.80;0.80;;;;;;;28.81;30.84;101266.03;5112009;28;20631;-76
2021/06/16 09:45:44;;;;;;;1.00;0.80;;;;;;;29.27;30.09;101299.25;5113002;28;20594;-76
2021/06/16 09:48:22;;;;;;;1.85;0.75;;;;;;;29.57;30.48;101302.47;5113154;28;20199;-76
2021/06/16 09:50:52;;;;;;;1.98;0.80;;;;;;;29.75;29.63;101302.66;5112852;28;20196;-76
2021/06/16 09:53:21;;;;;;;0.60;0.60;;;;;;;30.03;30.63;101305.19;5111735;28;20196;-76
2021/06/16 09:55:49;;;;;;;4.47;1.10;;;;;;;29.64;30.27;101319.91;5113047;28;20570;-76
2021/06/16 09:58:18;;;;;;;3.22;0.80;;;;;;;29.76;29.23;101320.13;5098176;28;20205;-77
2021/06/16 10:00:48;;;;;;;0.90;0.90;;;;;;;29.49;28.25;101320.16;5113405;28;20694;-74
2021/06/16 10:03:18;;;;;;;0.80;0.63;;;;;;;29.36;29.31;101307.13;5111956;28;20669;-75
2021/06/16 10:06:06;;;;;;;2.88;0.70;;;;;;;29.84;28.67;101317.13;5112865;28;20776;-74
2021/06/16 10:08:36;;;;;;;2.33;0.55;;;;;;;29.26;28.75;101322.47;5111087;28;20204;-76
2021/06/16 10:11:06;;;;;;;1.80;0.80;;;;;;;29.72;28.99;101314.19;5113362;28;20210;-76
2021/06/16 10:13:34;;;;;;;1.77;0.95;;;;;;;29.98;29.81;101311.31;5111618;28;20207;-75
2021/06/16 10:16:03;;;;;;;1.55;0.63;;;;;;;30.09;29.00;101307.06;5112756;28;20216;-75
2021/06/16 10:18:34;;;;;;;4.38;0.77;;;;;;;30.22;28.66;101304.22;5112088;28;20232;-74
2021/06/16 10:21:02;;;;;;;0.70;0.70;;;;;;;30.13;29.29;101311.09;5111906;28;20184;-75
2021/06/16 10:23:32;;;;;;;2.17;0.80;;;;;;;29.83;28.15;101298.81;5112693;28;20207;-75
2021/06/16 10:26:03;;;;;;;0.65;0.65;;;;;;;29.86;27.82;101310.28;5112553;28;20187;-76
2021/06/16 10:28:46;;;;;;;1.75;0.90;;;;;;;29.30;28.26;101310.75;5110662;28;20203;-75
2021/06/16 10:31:16;;;;;;;1.33;0.90;;;;;;;29.74;28.64;101308.41;5112281;28;20198;-76
2021/06/16 10:33:44;;;;;;;0.60;0.60;;;;;;;29.70;29.49;101302.47;5112234;28;20218;-76
2021/06/16 10:36:16;;;;;;;1.08;1.00;;;;;;;29.92;29.07;101300.25;5096587;28;20192;-76
2021/06/16 10:39:15;;;;;;;1.38;0.85;;;;;;;29.94;28.21;101300.88;5113017;28;20200;-76
2021/06/16 10:42:03;;;;;;;0.70;0.70;;;;;;;30.14;29.07;101306.41;5101962;28;20206;-76
2021/06/16 10:44:32;;;;;;;3.55;0.80;;;;;;;29.99;28.62;101304.69;5108298;28;20215;-76
2021/06/16 10:47:02;;;;;;;1.20;0.75;;;;;;;29.92;28.48;101280.88;5110916;28;20200;-76
2021/06/16 10:49:50;;;;;;;0.60;0.60;;;;;;;30.19;28.49;101298.28;5111368;28;20284;-76
2021/06/16 10:52:21;;;;;;;4.75;1.00;;;;;;;29.78;28.89;101296.69;5111751;28;20208;-76
2021/06/16 10:54:58;;;;;;;1.27;0.57;;;;;;;30.18;29.42;101293.81;5109417;28;20215;-76
2021/06/16 10:57:27;;;;;;;0.98;0.90;;;;;;;30.00;28.58;101294.47;5100495;28;20651;-76
2021/06/16 11:00:09;;;;;;;2.70;0.70;;;;;;;30.14;27.42;101289.78;5126005;27;20208;-76
2021/06/16 11:03:01;;;;;;;1.67;0.77;;;;;;;30.21;29.94;101291.44;5099290;28;20646;-76
2021/06/16 11:05:44;;;;;;;0.70;0.70;;;;;;;29.81;28.15;101296.25;5111480;28;20252;-76
2021/06/16 11:08:50;;;;;;;0.82;0.60;;;;;;;29.40;28.28;101295.66;5111541;28;20227;-76
2021/06/16 11:11:20;;;;;;;2.33;0.90;;;;;;;29.68;29.02;101286.03;5102631;28;20323;-76
2021/06/16 11:13:48;;;;;;;0.88;0.80;;;;;;;28.85;29.41;101286.69;5111269;28;20199;-76
2021/06/16 11:16:53;;;;;;;0.70;0.70;;;;;;;28.68;30.10;101287.03;5110924;28;20231;-76
2021/06/16 11:19:42;;;;;;;2.20;0.68;;;;;;;28.68;28.50;101295.34;5109462;28;20270;-76
2021/06/16 11:22:36;;;;;;;0.88;0.88;;;;;;;28.82;28.48;101301.78;5104023;28;20211;-76
2021/06/16 11:25:24;;;;;;;0.60;0.60;;;;;;;28.86;29.76;101303.06;5084537;28;20215;-76
2021/06/16 11:28:09;;;;;;;0.70;0.70;;;;;;;28.82;28.64;101295.38;5111758;28;20199;-76
2021/06/16 11:30:44;;;;;;;0.82;0.82;;;;;;;29.23;29.72;101298.84;5110802;28;20206;-76
2021/06/16 11:33:47;;;;;;;0.70;0.70;;;;;;;29.21;26.91;101294.59;5101769;28;20200;-74
2021/06/16 11:36:27;;;;;;;0.70;0.70;;;;;;;29.03;28.83;101304.34;5097022;28;20211;-77
2021/06/16 11:39:04;;;;;;;3.13;0.98;;;;;;;28.65;28.38;101297.69;5110943;28;20207;-76
2021/06/16 11:41:32;;;;;;;0.80;0.60;;;;;;;28.68;29.24;101300.88;5110917;28;20215;-76